createdAt,value
2019-04-16T00:03:42.991Z,26.80
2019-04-16T00:08:58.206Z,28.93
2019-04-16T00:14:13.248Z,27.20
2019-04-16T00:19:18.271Z,23.60
2019-04-16T00:24:30.061Z,26.80
2019-04-16T00:29:35.516Z,24.83
2019-04-16T00:34:44.595Z,26.70
2019-04-16T00:39:47.958Z,25.77
2019-04-16T00:44:53.012Z,27.20
2019-04-16T00:49:59.487Z,28.33
2019-04-16T00:55:06.679Z,27.93
2019-04-16T01:00:12.030Z,25.93
2019-04-16T01:05:19.130Z,24.23
2019-04-16T01:10:24.311Z,28.40
2019-04-16T01:15:32.091Z,31.43
2019-04-16T01:20:36.372Z,24.00
2019-04-16T01:25:41.666Z,24.63
2019-04-16T01:31:00.256Z,23.37
2019-04-16T01:36:13.062Z,30.00
2019-04-16T01:41:21.727Z,24.30
2019-04-16T01:46:25.334Z,27.70
2019-04-16T01:51:30.352Z,23.20
2019-04-16T01:56:35.458Z,25.20
2019-04-16T02:01:43.475Z,31.67
2019-04-16T02:06:47.320Z,27.83
2019-04-16T02:11:52.388Z,26.07
2019-04-16T02:16:57.630Z,30.30
2019-04-16T02:22:02.728Z,36.37
2019-04-16T02:27:07.776Z,32.93
2019-04-16T02:32:12.933Z,32.57
2019-04-16T02:37:17.843Z,27.37
2019-04-16T02:42:23.427Z,26.50
2019-04-16T02:47:28.653Z,30.90
2019-04-16T02:52:42.100Z,30.03
2019-04-16T02:58:08.911Z,28.63
2019-04-16T03:03:19.465Z,26.43
2019-04-16T03:08:24.530Z,27.07
2019-04-16T03:13:29.506Z,31.93
2019-04-16T03:18:46.898Z,29.43
2019-04-16T03:23:49.576Z,29.43
2019-04-16T03:28:55.633Z,28.80
2019-04-16T03:34:02.715Z,31.13
2019-04-16T03:39:12.284Z,37.40
2019-04-16T03:44:14.392Z,29.30
2019-04-16T03:49:19.750Z,28.97
2019-04-16T03:54:26.442Z,28.40
2019-04-16T03:59:31.702Z,33.87
2019-04-16T04:04:36.721Z,31.53
2019-04-16T04:09:41.890Z,34.10
2019-04-16T04:14:47.554Z,28.60
2019-04-16T04:19:53.457Z,33.73
2019-04-16T04:25:00.542Z,35.57
2019-04-16T04:30:06.743Z,35.10
2019-04-16T04:35:12.624Z,47.93
2019-04-16T04:40:18.365Z,30.50
2019-04-16T04:45:23.385Z,38.73
2019-04-16T04:50:29.318Z,37.30
2019-04-16T04:55:34.666Z,39.40
2019-04-16T05:00:41.440Z,44.20
2019-04-16T05:05:50.454Z,40.70
2019-04-16T05:11:25.598Z,29.53
2019-04-16T05:17:03.544Z,30.77
2019-04-16T05:22:12.233Z,36.87
2019-04-16T05:27:17.676Z,39.43
2019-04-16T05:32:25.684Z,35.50
2019-04-16T05:37:29.583Z,26.60
2019-04-16T05:42:35.132Z,39.83
2019-04-16T05:47:40.321Z,33.43
2019-04-16T05:52:45.434Z,33.93
2019-04-16T05:57:50.650Z,29.03
2019-04-16T06:02:56.696Z,36.57
2019-04-16T06:08:11.868Z,28.90
2019-04-16T06:13:28.066Z,33.17
2019-04-16T06:18:51.264Z,27.03
2019-04-16T06:24:04.101Z,25.63
2019-04-16T06:29:20.464Z,27.50
2019-04-16T06:34:32.588Z,29.73
2019-04-16T06:39:54.570Z,30.03
2019-04-16T06:45:04.802Z,28.53
2019-04-16T06:50:30.605Z,29.10
2019-04-16T06:55:58.248Z,25.83
2019-04-16T07:01:28.297Z,24.53
2019-04-16T07:06:49.008Z,23.87
2019-04-16T07:12:10.252Z,27.83
2019-04-16T07:17:17.994Z,25.00
2019-04-16T07:22:23.701Z,24.80
2019-04-16T07:27:44.885Z,28.70
2019-04-16T07:33:05.897Z,28.67
2019-04-16T07:38:26.194Z,23.73
2019-04-16T07:43:40.100Z,22.70
2019-04-16T07:49:01.137Z,22.03
2019-04-16T07:54:23.741Z,23.03
2019-04-16T07:59:32.366Z,26.00
2019-04-16T08:04:37.398Z,28.17
2019-04-16T08:09:42.494Z,28.10
2019-04-16T08:14:47.876Z,28.60
2019-04-16T08:19:55.546Z,30.97
2019-04-16T08:25:03.269Z,28.97
2019-04-16T08:30:12.040Z,24.97
2019-04-16T08:35:18.316Z,23.27
2019-04-16T08:40:32.403Z,23.80
2019-04-16T08:45:39.893Z,23.20
2019-04-16T08:50:50.352Z,22.93
2019-04-16T08:55:56.574Z,23.80
2019-04-16T09:01:01.772Z,23.27
2019-04-16T09:06:07.171Z,22.53
2019-04-16T09:11:23.076Z,21.80
2019-04-16T09:16:23.005Z,23.63
2019-04-16T09:21:28.349Z,22.63
2019-04-16T09:26:39.153Z,23.77
2019-04-16T09:31:59.591Z,22.60
2019-04-16T09:37:21.723Z,22.57
2019-04-16T09:42:28.942Z,22.10
2019-04-16T09:47:37.126Z,23.90
2019-04-16T09:52:42.304Z,23.47
2019-04-16T09:57:47.760Z,23.50
2019-04-16T10:02:55.716Z,22.40
2019-04-16T10:08:14.914Z,23.97
2019-04-16T10:13:31.155Z,26.67
2019-04-16T10:18:28.000Z,24.47
2019-04-16T10:23:42.292Z,22.90
2019-04-16T10:28:47.892Z,23.77
2019-04-16T10:44:22.174Z,22.13
2019-04-16T10:49:44.133Z,23.52
2019-04-16T10:55:12.171Z,23.12
2019-04-16T11:00:27.975Z,23.62
2019-04-16T11:05:56.805Z,27.50
2019-04-16T11:11:10.908Z,23.18
2019-04-16T11:16:17.449Z,22.70
2019-04-16T11:21:22.728Z,24.07
2019-04-16T11:26:27.812Z,24.10
2019-04-16T11:31:33.219Z,23.20
2019-04-16T11:36:38.356Z,24.12
2019-04-16T11:41:48.383Z,23.20
2019-04-16T11:46:53.503Z,23.27
2019-04-16T11:52:01.906Z,24.00
2019-04-16T11:57:07.471Z,23.95
2019-04-16T12:02:24.012Z,22.45
2019-04-16T12:07:57.038Z,24.18
2019-04-16T12:13:30.522Z,22.80
2019-04-16T12:18:58.395Z,24.00
2019-04-16T12:24:18.643Z,23.50
2019-04-16T12:29:49.490Z,23.05
2019-04-16T12:35:13.425Z,23.57
2019-04-16T12:40:45.428Z,24.90
2019-04-16T12:46:18.445Z,23.13
2019-04-16T12:51:47.995Z,26.83
2019-04-16T12:57:18.435Z,26.05
2019-04-16T13:02:35.789Z,22.80
2019-04-16T13:08:09.870Z,23.52
2019-04-16T13:13:29.464Z,23.90
2019-04-16T13:18:53.706Z,22.85
2019-04-16T13:24:05.672Z,23.22
2019-04-16T13:29:17.286Z,23.57
2019-04-16T13:34:22.754Z,22.60
2019-04-16T13:39:45.921Z,24.32
2019-04-16T13:44:56.095Z,24.80
2019-04-16T13:50:14.872Z,23.73
2019-04-16T13:55:30.710Z,25.43
2019-04-16T14:00:42.369Z,23.97
2019-04-16T14:05:47.522Z,25.35
2019-04-16T14:10:57.901Z,25.70
2019-04-16T14:16:11.705Z,24.85
2019-04-16T14:21:13.557Z,25.45
2019-04-16T14:26:19.225Z,24.37
2019-04-16T14:31:27.564Z,25.00
2019-04-16T14:36:33.243Z,24.87
2019-04-16T14:41:38.537Z,28.65
2019-04-16T14:46:44.246Z,26.63
2019-04-16T14:51:49.378Z,25.90
2019-04-16T14:56:59.279Z,26.23
2019-04-16T15:02:23.481Z,24.95
2019-04-16T15:07:37.279Z,27.03
2019-04-16T15:12:49.035Z,25.10
2019-04-16T15:18:16.048Z,25.25
2019-04-16T15:23:56.245Z,26.95
2019-04-16T15:29:23.316Z,25.27
2019-04-16T15:34:33.513Z,25.88
2019-04-16T15:39:43.348Z,24.67
2019-04-16T15:45:20.848Z,25.00
2019-04-16T15:50:54.542Z,24.53
2019-04-16T15:56:06.867Z,24.47
2019-04-16T16:01:31.357Z,24.72
2019-04-16T16:06:41.864Z,23.83
2019-04-16T16:11:58.315Z,24.72
2019-04-16T16:17:03.870Z,24.77
2019-04-16T16:22:11.902Z,24.98
2019-04-16T16:27:16.655Z,25.52
2019-04-16T16:32:21.850Z,24.20
2019-04-16T16:37:27.072Z,25.08
2019-04-16T16:42:32.672Z,28.60
2019-04-16T16:47:40.325Z,30.52
2019-04-16T16:53:03.274Z,26.85
2019-04-16T16:58:39.523Z,25.30
2019-04-16T17:04:01.714Z,25.10
2019-04-16T17:09:09.087Z,23.42
2019-04-16T17:14:17.516Z,24.37
2019-04-16T17:19:25.356Z,25.33
2019-04-16T17:24:32.297Z,27.65
2019-04-16T17:29:46.632Z,26.25
2019-04-16T17:34:52.015Z,24.85
2019-04-16T17:40:01.312Z,28.85
2019-04-16T17:45:29.535Z,26.17
2019-04-16T17:51:04.945Z,28.20
2019-04-16T17:56:32.161Z,29.70
2019-04-16T18:01:54.848Z,28.70
2019-04-16T18:07:25.160Z,30.85
2019-04-16T18:12:50.766Z,26.07
2019-04-16T18:18:02.051Z,25.83
2019-04-16T18:23:32.333Z,24.57
2019-04-16T18:28:41.817Z,24.98
2019-04-16T18:33:55.371Z,25.73
2019-04-16T18:39:25.579Z,24.30
2019-04-16T18:44:56.687Z,26.23
2019-04-16T18:50:05.784Z,29.70
2019-04-16T18:55:11.367Z,27.43
2019-04-16T19:00:34.728Z,28.00
2019-04-16T19:05:40.473Z,28.23
2019-04-16T19:10:47.119Z,29.57
2019-04-16T19:15:54.233Z,30.23
2019-04-16T19:20:59.605Z,31.17
2019-04-16T19:26:06.783Z,30.73
2019-04-16T19:31:12.176Z,25.97
2019-04-16T19:36:19.769Z,29.80
2019-04-16T19:41:26.979Z,28.93
2019-04-16T19:46:32.485Z,27.47
2019-04-16T19:51:41.244Z,27.20
2019-04-16T19:56:52.284Z,26.70
2019-04-16T20:02:01.649Z,30.23
2019-04-16T20:07:06.456Z,30.27
2019-04-16T20:12:13.527Z,32.20
2019-04-16T20:17:24.227Z,33.37
2019-04-16T20:22:30.679Z,30.43
2019-04-16T20:27:39.807Z,32.20
2019-04-16T20:32:44.320Z,38.63
2019-04-16T20:37:53.979Z,34.50
2019-04-16T20:42:57.569Z,30.80
2019-04-16T20:48:04.878Z,24.43
2019-04-16T20:53:09.902Z,25.30
2019-04-16T20:58:15.075Z,28.43
2019-04-16T21:03:22.552Z,27.47
2019-04-16T21:08:26.741Z,26.17
2019-04-16T21:13:35.153Z,23.83
2019-04-16T21:18:40.318Z,30.70
2019-04-16T21:23:45.325Z,35.13
2019-04-16T21:29:02.008Z,36.33
2019-04-16T21:34:16.704Z,27.67
2019-04-16T21:39:26.059Z,28.17
2019-04-16T21:44:31.214Z,28.37
2019-04-16T21:49:38.713Z,28.33
2019-04-16T21:54:43.009Z,29.00
2019-04-16T21:59:56.973Z,27.53
2019-04-16T22:05:02.660Z,28.70
2019-04-16T22:10:08.990Z,27.20
2019-04-16T22:15:14.426Z,27.70
2019-04-16T22:20:19.703Z,27.03
2019-04-16T22:25:31.006Z,27.53
2019-04-16T22:30:36.504Z,26.03
2019-04-16T22:35:47.440Z,28.53
2019-04-16T22:41:00.609Z,28.77
2019-04-16T22:46:18.124Z,27.33
2019-04-16T22:51:24.234Z,28.07
2019-04-16T22:56:40.695Z,25.90
2019-04-16T23:01:45.797Z,27.43
2019-04-16T23:06:51.752Z,25.07
2019-04-16T23:11:57.221Z,23.37
2019-04-16T23:17:03.202Z,24.10
2019-04-16T23:22:08.557Z,24.63
2019-04-16T23:27:16.666Z,25.43
2019-04-16T23:32:27.651Z,25.00
2019-04-16T23:37:29.986Z,25.20
2019-04-16T23:42:37.816Z,26.13
2019-04-16T23:48:08.238Z,26.10
2019-04-16T23:53:23.246Z,23.00
2019-04-16T23:58:37.213Z,21.93
